Nearby METAR Reports

 

KFRG - , , USA
Distance from station: SSW 12mi, 20km
Updated: 09/27/2021 7:53am
Mostly cloudy
Mostly cloudy
 Wind from W
Wind: W 8 mph , 13 km/h
Temperature: 63°F , 17°C
Dew Point: 48°F , 9°C
Humidity: 59%
Barometer: 30.00 inHg , 1015.9 hPa
Clouds: Mostly cloudy
Visibility: 10 miles , 16 km
Cloud details: Mostly cloudy 8000 ft
Mostly cloudy 12000 ft
2021/09/27 11:53 KFRG 271153Z 27007KT 10SM BKN080 BKN120 17/09 A3000 RMK AO2 SLP157 T01720089 10178 20150 53009
KISP - , , USA
Distance from station: ESE 14mi, 23km
Updated: 09/27/2021 7:56am
Mostly cloudy
Mostly cloudy
 Wind from W
Wind: W 6 mph , 9 km/h
Temperature: 61°F , 16°C
Dew Point: 50°F , 10°C
Humidity: 68%
Barometer: 29.99 inHg , 1015.6 hPa
Clouds: Mostly cloudy
Visibility: 10 miles , 16 km
Cloud details: Mostly cloudy 12000 ft
2021/09/27 11:56 KISP 271156Z 27005KT 10SM BKN120 16/10 A2999 RMK AO2 SLP154 T01610100 10161 20139 53008
 
KBDR - , , USA
Distance from station: NNE 21mi, 34km
Updated: 09/27/2021 7:52am
Mostly cloudy
Mostly cloudy
 Wind from WSW
Wind: WSW 7 mph , 11 km/h
Temperature: 63°F , 17°C
Dew Point: 50°F , 10°C
Humidity: 64%
Barometer: 29.98 inHg , 1015.2 hPa
Clouds: Mostly cloudy
Visibility: 10 miles , 16 km
Cloud details: Mostly cloudy 12000 ft
2021/09/27 11:52 KBDR 271152Z 24006KT 10SM BKN120 17/10 A2998 RMK AO2 SLP150 T01720100 10178 20133 52009
KHPN - , , USA
Distance from station: WNW 22mi, 35km
Updated: 09/27/2021 7:56am
Mostly cloudy
Mostly cloudy
 Wind from W
Wind: W 7 mph , 11 km/h
Temperature: 59°F , 15°C
Dew Point: 46°F , 8°C
Humidity: 63%
Barometer: 29.98 inHg , 1015.2 hPa
Clouds: Mostly cloudy
Visibility: 10 miles , 16 km
Cloud details: Mostly cloudy 12000 ft
2021/09/27 11:56 KHPN 271156Z 28006KT 10SM BKN120 15/08 A2998 RMK AO2 SLP152 T01500083 10150 20128 51011 $
 
KHWV - , , USA
Distance from station: ESE 26mi, 41km
Updated: 09/27/2021 7:56am
Mostly cloudy
Mostly cloudy
 Wind from WSW
Wind: WSW 5 mph , 7 km/h
Temperature: 61°F , 16°C
Dew Point: 48°F , 9°C
Humidity: 63%
Barometer: 29.99 inHg , 1015.6 hPa
Clouds: Mostly cloudy
Visibility: 10 miles , 16 km
Cloud details: Mostly cloudy 12000 ft
2021/09/27 11:56 KHWV 271156Z AUTO 25004KT 10SM BKN120 16/09 A2999 RMK AO2 SLP157 T01560094 10156 20139 53012
KJFK - , , USA
Distance from station: SW 29mi, 46km
Updated: 09/27/2021 7:51am
Mostly cloudy
Mostly cloudy
 Wind from W
Wind: W 13 mph , 20 km/h
Temperature: 64°F , 18°C
Dew Point: 48°F , 9°C
Humidity: 56%
Barometer: 30.01 inHg , 1016.3 hPa
Clouds: Mostly cloudy
Visibility: 10 miles , 16 km
Cloud details: Mostly cloudy 8500 ft
2021/09/27 11:51 KJFK 271151Z 26011KT 10SM BKN085 18/09 A3001 RMK AO2 SLP163 T01830094 10183 20161 53012 $
 
KLGA - , , USA
Distance from station: WSW 29mi, 47km
Updated: 09/27/2021 7:51am
Mostly cloudy
Mostly cloudy
 Wind from W
Wind: W 14 mph , 22 km/h
Temperature: 66°F , 19°C
Dew Point: 45°F , 7°C
Humidity: 46%
Barometer: 29.99 inHg , 1015.6 hPa
Clouds: Mostly cloudy
Visibility: 10 miles , 16 km
Cloud details: Few Clouds 9500 ft
Mostly cloudy 12000 ft
2021/09/27 11:51 KLGA 271151Z 26012KT 10SM FEW095 BKN120 19/07 A2999 RMK AO2 SLP157 T01890067 10200 20183 53012 $